Time;durP1;ratioP1;P1;durP2;ratioP2;P2;SDS_P1;SDS_P2;PMS_P1;PMS_P2;Temp;Humidity;BMP_temperature;BMP_pressure;BME280_temperature;BME280_humidity;BME280_pressure;Samples;Min_cycle;Max_cycle;Signal;HPM_P1;HPM_P2
2021/05/31 00:01:48;;;;;;;4.87;3.47;;;9.20;71.10;;;;;;5102499;28;20196;-88
2021/05/31 00:04:14;;;;;;;5.33;3.60;;;9.20;71.30;;;;;;5104228;28;20315;-87
2021/05/31 00:06:48;;;;;;;5.20;3.63;;;9.00;69.20;;;;;;5117728;28;20218;-88
2021/05/31 00:09:15;;;;;;;4.40;3.40;;;8.90;73.80;;;;;;5127604;28;20286;-87
2021/05/31 00:11:41;;;;;;;4.80;3.27;;;8.90;71.60;;;;;;5124365;28;20616;-87
2021/05/31 00:14:09;;;;;;;3.90;3.47;;;8.80;70.10;;;;;;5111854;28;20200;-88
2021/05/31 00:16:36;;;;;;;3.87;3.20;;;8.90;73.80;;;;;;5110693;28;20552;-87
2021/05/31 00:19:55;;;;;;;4.37;3.40;;;9.00;73.90;;;;;;5110972;28;20197;-87
2021/05/31 00:22:23;;;;;;;3.83;3.30;;;9.00;73.90;;;;;;5111564;28;20231;-87
2021/05/31 00:24:51;;;;;;;6.37;3.23;;;8.90;73.80;;;;;;5111492;28;20235;-87
2021/05/31 00:27:18;;;;;;;5.10;3.40;;;8.70;73.60;;;;;;5111251;28;20204;-87
2021/05/31 00:29:46;;;;;;;5.10;3.60;;;8.50;73.40;;;;;;5111216;28;20212;-88
2021/05/31 00:32:12;;;;;;;4.63;3.17;;;8.50;76.60;;;;;;5111633;28;20207;-87
2021/05/31 00:34:39;;;;;;;4.97;3.57;;;8.60;75.60;;;;;;5111038;28;20266;-87
2021/05/31 00:38:01;;;;;;;5.03;3.47;;;8.70;75.70;;;;;;5111281;28;20189;-87
2021/05/31 00:43:50;;;;;;;4.53;3.57;;;8.80;75.70;;;;;;5111731;28;20223;-87
2021/05/31 00:49:41;;;;;;;3.60;3.30;;;8.70;74.60;;;;;;5110278;27;20223;-87
2021/05/31 00:52:09;;;;;;;3.67;3.30;;;8.40;76.00;;;;;;5110999;28;20189;-88
2021/05/31 00:54:36;;;;;;;4.57;3.47;;;8.20;77.30;;;;;;5110298;28;20228;-89
2021/05/31 00:57:03;;;;;;;4.07;3.57;;;8.30;79.70;;;;;;5111268;28;20195;-87
2021/05/31 00:59:30;;;;;;;3.73;3.30;;;8.40;79.70;;;;;;5110800;28;20232;-88
2021/05/31 01:01:56;;;;;;;4.60;3.30;;;8.50;78.50;;;;;;5130507;28;20207;-87
2021/05/31 01:04:23;;;;;;;5.37;3.50;;;8.40;77.70;;;;;;5114510;28;20240;-87
2021/05/31 01:07:02;;;;;;;4.37;3.37;;;8.20;78.40;;;;;;5109954;28;20231;-87
2021/05/31 01:09:35;;;;;;;3.77;3.30;;;8.00;80.00;;;;;;5109921;28;20228;-87
2021/05/31 01:12:08;;;;;;;4.63;3.77;;;7.90;80.20;;;;;;5110655;28;20196;-87
2021/05/31 01:14:50;;;;;;;5.33;3.53;;;8.00;81.90;;;;;;5111295;28;20311;-87
2021/05/31 01:17:21;;;;;;;7.23;3.97;;;8.20;81.20;;;;;;5111396;28;20663;-87
2021/05/31 01:23:00;;;;;;;4.67;4.00;;;8.50;81.00;;;;;;5047714;28;20246;-87
2021/05/31 01:25:34;;;;;;;4.43;3.67;;;8.50;79.90;;;;;;5105863;28;20679;-87
2021/05/31 01:28:33;;;;;;;5.23;3.40;;;8.40;80.10;;;;;;5106322;28;20266;-88
2021/05/31 01:31:00;;;;;;;4.43;3.97;;;8.20;79.80;;;;;;5109481;28;20196;-88
2021/05/31 01:33:31;;;;;;;4.73;3.83;;;8.00;80.40;;;;;;5106545;28;20230;-90
2021/05/31 01:35:59;;;;;;;7.20;4.00;;;7.80;81.80;;;;;;5107301;28;20260;-90
2021/05/31 01:38:27;;;;;;;6.47;3.93;;;7.80;84.60;;;;;;5106023;28;20307;-90
2021/05/31 01:41:09;;;;;;;5.87;3.83;;;7.90;84.10;;;;;;5106931;28;20185;-90
2021/05/31 01:43:38;;;;;;;11.80;3.90;;;7.90;84.40;;;;;;5104991;28;20228;-92
2021/05/31 01:46:05;;;;;;;5.63;3.80;;;7.80;84.10;;;;;;5107633;28;20697;-89
2021/05/31 01:48:32;;;;;;;4.40;3.97;;;7.60;84.90;;;;;;5113640;28;20220;-90
2021/05/31 01:51:00;;;;;;;4.50;3.83;;;7.60;86.00;;;;;;5121154;28;20200;-90
2021/05/31 01:53:27;;;;;;;4.20;3.77;;;7.60;87.20;;;;;;5116137;28;20224;-90
2021/05/31 01:55:54;;;;;;;4.30;3.60;;;7.70;87.10;;;;;;5106040;28;20208;-90
2021/05/31 01:58:21;;;;;;;5.83;4.23;;;7.80;86.70;;;;;;5105420;28;20228;-90
2021/05/31 02:00:49;;;;;;;5.40;4.20;;;7.70;85.60;;;;;;5085944;28;20580;-90
2021/05/31 02:03:15;;;;;;;9.90;4.37;;;7.60;85.70;;;;;;5094712;28;20229;-90
2021/05/31 02:05:42;;;;;;;5.60;4.30;;;7.40;87.10;;;;;;5095857;28;20224;-91
2021/05/31 02:08:08;;;;;;;5.77;4.00;;;7.40;90.10;;;;;;5095363;28;20280;-91
2021/05/31 02:10:35;;;;;;;5.67;4.10;;;7.60;90.20;;;;;;5101798;28;20261;-92
2021/05/31 02:13:04;;;;;;;4.87;4.37;;;7.70;89.00;;;;;;5093796;28;20200;-90
2021/05/31 02:15:38;;;;;;;5.17;4.40;;;7.70;87.50;;;;;;5094610;28;20197;-90
2021/05/31 02:18:11;;;;;;;5.17;4.47;;;7.60;87.50;;;;;;5095009;28;20223;-93
2021/05/31 02:20:38;;;;;;;4.80;4.20;;;7.30;87.50;;;;;;5100470;28;20197;-91
2021/05/31 02:23:07;;;;;;;7.77;4.40;;;7.10;89.10;;;;;;5101537;28;20240;-91
2021/05/31 02:25:34;;;;;;;5.53;4.23;;;7.20;90.10;;;;;;5100454;28;20224;-91
2021/05/31 02:28:01;;;;;;;5.93;4.27;;;7.40;90.10;;;;;;5091375;28;20200;-90
2021/05/31 02:30:28;;;;;;;6.07;4.73;;;7.50;90.10;;;;;;5104884;28;20842;-93
2021/05/31 02:32:58;;;;;;;5.53;4.47;;;7.60;88.80;;;;;;5105726;28;20604;-90
2021/05/31 02:35:28;;;;;;;4.50;4.10;;;7.40;86.40;;;;;;5097574;28;20199;-90
2021/05/31 02:37:57;;;;;;;5.47;4.57;;;7.30;87.20;;;;;;5104009;28;20196;-88
2021/05/31 02:40:24;;;;;;;5.93;4.40;;;7.10;90.00;;;;;;5107914;28;20193;-90
2021/05/31 02:42:52;;;;;;;6.37;4.70;;;7.10;90.10;;;;;;5103000;28;20229;-88
2021/05/31 02:45:22;;;;;;;6.37;4.10;;;7.20;90.10;;;;;;5111164;28;20208;-89
2021/05/31 02:47:49;;;;;;;5.43;4.70;;;7.30;90.10;;;;;;5109417;28;20207;-91
2021/05/31 02:50:15;;;;;;;5.37;3.97;;;7.20;87.90;;;;;;5110256;28;20191;-88
2021/05/31 02:52:44;;;;;;;5.83;4.30;;;6.90;87.50;;;;;;5112222;28;20744;-90
2021/05/31 02:55:12;;;;;;;4.50;4.10;;;6.70;88.30;;;;;;5115637;28;20212;-89
2021/05/31 02:57:39;;;;;;;6.47;4.27;;;6.80;90.00;;;;;;5112724;28;20188;-90
2021/05/31 03:00:09;;;;;;;6.47;4.17;;;6.70;90.00;;;;;;5112420;28;20579;-88
2021/05/31 03:02:35;;;;;;;7.10;3.80;;;6.70;89.70;;;;;;5113637;28;20196;-89
2021/05/31 03:05:02;;;;;;;4.73;4.00;;;6.60;90.00;;;;;;5107104;28;20549;-88
2021/05/31 03:07:29;;;;;;;5.80;3.87;;;6.50;90.10;;;;;;5108638;28;20234;-91
2021/05/31 03:09:56;;;;;;;5.23;4.10;;;6.50;89.90;;;;;;5107094;28;20220;-87
2021/05/31 03:12:23;;;;;;;4.47;3.83;;;6.50;89.90;;;;;;5112560;28;20220;-89
2021/05/31 03:14:51;;;;;;;5.60;4.10;;;6.30;89.80;;;;;;5111324;28;20256;-90
2021/05/31 03:17:17;;;;;;;5.87;4.10;;;6.30;90.20;;;;;;5108121;28;20192;-90
2021/05/31 03:19:44;;;;;;;6.40;4.33;;;6.20;90.70;;;;;;5107803;28;20216;-88
2021/05/31 03:22:11;;;;;;;4.80;3.90;;;6.30;91.00;;;;;;5105828;28;20188;-88
2021/05/31 03:24:37;;;;;;;7.50;4.10;;;6.40;90.70;;;;;;5106251;28;20224;-90
2021/05/31 03:27:05;;;;;;;5.73;4.03;;;6.60;90.70;;;;;;5106585;28;20814;-89
2021/05/31 03:29:32;;;;;;;5.90;4.07;;;6.70;90.00;;;;;;5098999;28;20762;-89
2021/05/31 03:31:59;;;;;;;6.07;3.80;;;6.80;88.90;;;;;;5099989;28;20549;-89
2021/05/31 03:34:25;;;;;;;4.50;3.90;;;6.70;88.40;;;;;;5092673;28;20585;-89
2021/05/31 03:36:52;;;;;;;6.47;3.90;;;6.60;87.80;;;;;;5115680;28;21126;-87
2021/05/31 03:39:18;;;;;;;6.47;3.93;;;6.40;87.50;;;;;;5108787;28;20224;-90
2021/05/31 03:41:45;;;;;;;5.07;4.03;;;6.30;88.60;;;;;;5103694;28;20203;-88
2021/05/31 03:44:12;;;;;;;5.07;4.13;;;6.20;89.70;;;;;;5106034;28;20225;-87
2021/05/31 03:46:39;;;;;;;6.33;4.17;;;6.20;89.70;;;;;;5103828;28;20282;-89
2021/05/31 03:49:05;;;;;;;5.43;4.00;;;6.10;89.70;;;;;;5102599;28;20220;-88
2021/05/31 03:51:31;;;;;;;5.23;4.10;;;6.20;90.40;;;;;;5103574;28;20196;-89
2021/05/31 03:53:59;;;;;;;7.50;4.37;;;6.30;89.70;;;;;;5104568;28;20589;-88
2021/05/31 03:56:25;;;;;;;4.63;4.10;;;6.40;89.80;;;;;;5109475;28;20206;-89
2021/05/31 03:58:52;;;;;;;4.60;3.87;;;6.50;89.90;;;;;;5105200;28;20288;-88
2021/05/31 04:01:20;;;;;;;5.87;3.90;;;6.60;90.00;;;;;;5109793;28;20200;-88
2021/05/31 04:03:47;;;;;;;5.67;4.07;;;6.80;88.70;;;;;;5113177;28;20231;-88
2021/05/31 04:06:21;;;;;;;6.93;3.80;;;6.60;87.20;;;;;;5098007;28;20240;-90
2021/05/31 04:11:35;;;;;;;4.30;3.90;;;6.60;88.30;;;;;;5104538;28;20243;-91
2021/05/31 04:14:04;;;;;;;4.47;3.93;;;6.50;89.00;;;;;;5092057;28;20239;-90
2021/05/31 04:16:32;;;;;;;6.23;4.23;;;6.50;89.90;;;;;;5104908;28;20193;-93
2021/05/31 04:18:59;;;;;;;5.13;4.13;;;6.50;90.00;;;;;;5092540;28;20227;-90
2021/05/31 04:21:25;;;;;;;6.13;4.00;;;6.70;90.00;;;;;;5097716;28;20224;-90
2021/05/31 04:23:52;;;;;;;7.10;4.40;;;6.90;90.00;;;;;;5108208;28;20252;-90
2021/05/31 04:26:19;;;;;;;4.70;4.20;;;7.10;90.10;;;;;;5103735;28;20222;-92
2021/05/31 04:28:45;;;;;;;6.70;4.40;;;7.20;88.50;;;;;;5109367;28;20698;-89
2021/05/31 04:31:12;;;;;;;6.03;4.67;;;7.30;87.00;;;;;;5103913;28;20540;-91
2021/05/31 04:33:39;;;;;;;5.70;4.17;;;7.30;87.20;;;;;;5099053;28;20299;-89
2021/05/31 04:36:06;;;;;;;5.50;4.40;;;7.30;86.80;;;;;;5105876;28;20196;-89
2021/05/31 04:38:33;;;;;;;5.67;3.87;;;7.40;86.70;;;;;;5105363;28;20244;-90
2021/05/31 04:40:59;;;;;;;4.77;4.30;;;7.50;87.20;;;;;;5123156;28;20200;-89
2021/05/31 04:43:26;;;;;;;5.40;4.57;;;7.50;87.10;;;;;;5115738;28;20235;-89
2021/05/31 04:45:52;;;;;;;7.93;4.20;;;7.60;85.40;;;;;;5108988;28;20238;-89
2021/05/31 04:48:19;;;;;;;9.70;4.93;;;7.50;86.20;;;;;;5118409;28;20228;-90
2021/05/31 04:50:47;;;;;;;7.53;4.70;;;7.50;84.90;;;;;;5105631;28;20238;-89
2021/05/31 04:53:14;;;;;;;6.13;4.40;;;7.60;85.20;;;;;;5107194;28;20224;-89
2021/05/31 04:55:41;;;;;;;5.40;4.60;;;7.70;87.30;;;;;;5110032;28;20208;-89
2021/05/31 04:58:07;;;;;;;5.23;4.60;;;7.80;86.60;;;;;;5112843;28;20223;-89
2021/05/31 05:00:34;;;;;;;6.43;5.07;;;7.90;83.70;;;;;;5120916;28;20663;-89
2021/05/31 05:03:01;;;;;;;7.07;4.40;;;8.00;84.10;;;;;;5106582;28;20207;-88
2021/05/31 05:05:27;;;;;;;6.20;4.70;;;8.10;84.30;;;;;;5108678;28;20275;-88
2021/05/31 05:07:55;;;;;;;7.20;5.27;;;8.30;84.00;;;;;;5110990;27;20196;-89
2021/05/31 05:10:22;;;;;;;7.77;5.13;;;8.50;84.10;;;;;;5110701;28;20200;-89
2021/05/31 05:12:51;;;;;;;6.70;4.97;;;8.60;82.80;;;;;;5108613;28;20193;-90
2021/05/31 05:15:20;;;;;;;6.93;5.37;;;8.60;82.40;;;;;;5108761;28;20214;-88
2021/05/31 05:17:47;;;;;;;8.20;5.60;;;8.60;82.80;;;;;;5107696;28;20189;-89
2021/05/31 05:20:15;;;;;;;8.63;5.80;;;8.70;82.20;;;;;;5108941;28;20443;-88
2021/05/31 05:22:41;;;;;;;8.57;6.03;;;8.80;82.40;;;;;;5108204;28;20224;-88
2021/05/31 05:25:11;;;;;;;5.70;5.10;;;8.90;82.00;;;;;;5109420;28;20225;-88
2021/05/31 05:27:38;;;;;;;8.20;5.80;;;9.00;81.70;;;;;;5109763;28;20224;-87
2021/05/31 05:30:06;;;;;;;8.07;5.50;;;9.00;81.00;;;;;;5116281;28;20227;-88
2021/05/31 05:32:33;;;;;;;6.87;5.80;;;9.10;80.60;;;;;;5110049;28;20214;-87
2021/05/31 05:35:07;;;;;;;7.83;5.93;;;9.10;80.90;;;;;;5109493;28;20207;-88
2021/05/31 05:37:41;;;;;;;6.43;5.53;;;9.20;81.70;;;;;;5090795;28;20199;-88
2021/05/31 06:34:45;;;;;;;6.00;4.95;;;11.20;66.10;;;;;;5085687;28;20221;-89
2021/05/31 06:37:11;;;;;;;6.22;5.20;;;11.20;68.90;;;;;;5089393;28;20320;-89
2021/05/31 06:58:35;;;;;;;7.38;4.68;;;12.30;59.90;;;;;;5263016;22;20259;-88
2021/05/31 07:01:16;;;;;;;8.13;4.70;;;12.40;58.50;;;;;;5089820;28;20205;-88
2021/05/31 07:03:43;;;;;;;9.93;5.20;;;12.30;60.00;;;;;;5088977;28;20235;-88
2021/05/31 07:06:10;;;;;;;6.50;4.70;;;12.40;61.50;;;;;;5088456;28;20324;-88
2021/05/31 07:08:36;;;;;;;7.43;4.85;;;12.60;58.20;;;;;;5087758;28;20243;-88
2021/05/31 07:11:09;;;;;;;8.35;4.80;;;12.80;57.20;;;;;;5087818;28;20272;-88
2021/05/31 07:13:37;;;;;;;6.32;4.50;;;12.80;55.80;;;;;;5086876;28;20262;-90
2021/05/31 07:16:04;;;;;;;5.30;4.65;;;12.60;56.70;;;;;;5088449;28;20197;-88
2021/05/31 07:18:30;;;;;;;4.78;4.30;;;13.20;52.90;;;;;;5089915;28;20232;-88
2021/05/31 07:24:59;;;;;;;4.97;4.25;;;13.80;50.20;;;;;;5098786;27;20181;-88
2021/05/31 07:27:51;;;;;;;5.53;4.30;;;13.90;50.30;;;;;;5089064;28;20216;-89
2021/05/31 07:34:30;;;;;;;4.40;4.00;;;13.90;47.60;;;;;;5072053;28;20236;-88
2021/05/31 07:37:48;;;;;;;5.25;4.07;;;14.00;48.90;;;;;;5072144;28;20208;-89
2021/05/31 07:40:34;;;;;;;4.47;4.07;;;14.00;48.00;;;;;;5067224;28;20222;-88
2021/05/31 07:43:18;;;;;;;5.15;4.32;;;14.00;50.50;;;;;;5074345;28;20269;-91
2021/05/31 07:49:15;;;;;;;3.90;3.50;;;13.90;47.00;;;;;;5074783;28;20189;-89
2021/05/31 07:51:44;;;;;;;4.55;3.88;;;14.00;46.60;;;;;;5074176;28;20695;-90
2021/05/31 08:01:57;;;;;;;4.65;3.65;;;14.40;42.70;;;;;;5169851;22;20239;-89
2021/05/31 08:04:24;;;;;;;6.78;3.35;;;14.70;43.10;;;;;;5009760;28;20237;-89
2021/05/31 08:06:50;;;;;;;4.20;3.80;;;14.80;39.80;;;;;;4981465;28;20707;-90
2021/05/31 08:09:17;;;;;;;4.25;3.85;;;15.20;39.80;;;;;;4987752;28;20601;-88
2021/05/31 08:11:43;;;;;;;4.60;3.55;;;15.20;42.40;;;;;;4982428;28;20208;-89
2021/05/31 08:14:10;;;;;;;4.18;3.75;;;15.30;39.50;;;;;;4983764;28;20223;-91
2021/05/31 08:16:36;;;;;;;4.70;3.28;;;15.10;41.20;;;;;;5000520;28;20208;-90
2021/05/31 08:19:04;;;;;;;3.58;3.25;;;15.30;38.70;;;;;;5023181;28;20229;-90
2021/05/31 08:21:30;;;;;;;3.35;2.95;;;16.00;37.40;;;;;;5067393;28;20233;-90
2021/05/31 08:23:57;;;;;;;3.47;2.95;;;16.50;35.20;;;;;;5030631;28;20208;-87
2021/05/31 08:26:23;;;;;;;5.95;3.55;;;19.40;28.90;;;;;;4979615;28;20225;-88
2021/05/31 08:28:50;;;;;;;3.40;3.10;;;20.90;26.00;;;;;;4975043;28;21419;-86
2021/05/31 08:31:17;;;;;;;3.17;2.97;;;22.00;24.70;;;;;;4976669;28;20228;-86
2021/05/31 08:33:44;;;;;;;6.82;3.78;;;23.90;21.00;;;;;;4998093;28;20231;-86
2021/05/31 08:36:12;;;;;;;4.32;3.10;;;24.90;18.90;;;;;;4974094;28;20575;-86
2021/05/31 08:38:38;;;;;;;5.70;3.30;;;25.90;18.50;;;;;;4971813;28;20323;-87
2021/05/31 08:41:05;;;;;;;5.10;3.50;;;26.40;17.70;;;;;;5006078;28;20192;-86
2021/05/31 08:43:31;;;;;;;5.07;3.55;;;26.60;15.00;;;;;;5015682;28;20578;-87
2021/05/31 08:45:58;;;;;;;3.38;3.13;;;26.50;16.10;;;;;;5071451;28;20189;-86
2021/05/31 08:48:24;;;;;;;3.83;3.53;;;27.40;15.30;;;;;;5046987;28;20395;-87
2021/05/31 08:50:51;;;;;;;5.80;4.70;;;28.30;15.30;;;;;;4970813;28;20208;-86
2021/05/31 08:53:20;;;;;;;4.03;3.60;;;28.40;14.90;;;;;;4971350;28;20239;-86
2021/05/31 08:55:47;;;;;;;4.47;4.07;;;28.60;14.10;;;;;;4957906;28;20263;-86
2021/05/31 08:58:23;;;;;;;6.82;4.22;;;28.10;14.40;;;;;;4950484;28;20708;-88
2021/05/31 09:00:49;;;;;;;7.38;4.25;;;28.00;14.20;;;;;;4949272;29;20558;-86
2021/05/31 09:03:18;;;;;;;5.22;4.43;;;28.40;16.70;;;;;;4945909;28;20236;-89
2021/05/31 09:05:46;;;;;;;6.65;4.43;;;28.50;14.40;;;;;;4985461;28;20212;-87
2021/05/31 09:08:13;;;;;;;5.20;4.70;;;28.50;14.20;;;;;;4986052;28;20717;-87
2021/05/31 09:10:45;;;;;;;4.47;4.13;;;27.00;15.70;;;;;;5003645;28;20205;-86
2021/05/31 09:13:13;;;;;;;4.85;4.45;;;26.60;16.60;;;;;;4976636;28;20235;-87
2021/05/31 09:15:44;;;;;;;4.85;4.45;;;27.00;15.20;;;;;;4979332;28;20239;-87
2021/05/31 09:18:11;;;;;;;4.72;4.32;;;26.80;16.00;;;;;;4979403;28;20236;-88
2021/05/31 09:20:38;;;;;;;4.32;4.00;;;27.70;15.50;;;;;;5000382;28;20197;-86
2021/05/31 09:23:04;;;;;;;4.57;4.18;;;28.10;15.70;;;;;;5018003;28;20196;-87
2021/05/31 09:25:33;;;;;;;6.22;4.47;;;28.80;16.00;;;;;;4987027;28;20204;-88
2021/05/31 09:28:03;;;;;;;4.85;4.55;;;27.70;15.50;;;;;;4973347;28;20247;-87
2021/05/31 09:30:38;;;;;;;4.70;4.30;;;27.40;15.30;;;;;;4978087;28;20540;-89
2021/05/31 09:33:09;;;;;;;58.53;17.77;;;27.80;15.50;;;;;;4993552;28;20208;-90
2021/05/31 09:35:42;;;;;;;6.18;4.55;;;27.70;15.50;;;;;;4992743;28;20233;-87
2021/05/31 09:38:09;;;;;;;10.35;6.38;;;27.70;15.50;;;;;;4989528;28;20231;-87
2021/05/31 09:40:36;;;;;;;5.40;4.90;;;28.10;15.70;;;;;;4982312;28;20682;-88
2021/05/31 09:43:07;;;;;;;4.55;4.20;;;28.40;15.90;;;;;;4990963;28;20675;-88
2021/05/31 09:45:40;;;;;;;5.03;4.10;;;28.20;15.80;;;;;;4986233;28;20207;-88
2021/05/31 09:48:06;;;;;;;4.53;4.13;;;28.60;14.60;;;;;;4978154;28;20223;-87
2021/05/31 09:50:34;;;;;;;3.72;3.45;;;26.80;15.00;;;;;;4979869;28;20210;-88
2021/05/31 09:53:03;;;;;;;4.45;3.80;;;27.30;15.30;;;;;;5012835;28;20269;-88
2021/05/31 09:55:34;;;;;;;4.05;3.75;;;27.00;15.10;;;;;;4989139;28;20701;-89
2021/05/31 09:58:01;;;;;;;4.30;3.67;;;27.20;15.20;;;;;;4978171;28;20196;-88
2021/05/31 10:00:31;;;;;;;3.65;3.33;;;27.20;14.10;;;;;;4990191;28;20199;-88
2021/05/31 10:03:02;;;;;;;6.55;3.92;;;27.20;15.20;;;;;;5011928;28;20591;-88
2021/05/31 10:05:36;;;;;;;4.40;3.92;;;27.00;15.10;;;;;;4995330;28;20269;-88
2021/05/31 10:08:40;;;;;;;5.38;3.90;;;28.00;15.70;;;;;;5015144;28;20248;-89
2021/05/31 10:11:05;;;;;;;5.45;4.07;;;28.80;13.00;;;;;;4963773;28;20227;-88
2021/05/31 10:13:32;;;;;;;6.53;3.60;;;28.90;14.00;;;;;;5020058;28;20265;-86
2021/05/31 10:16:04;;;;;;;3.78;3.38;;;27.50;15.40;;;;;;5007050;28;20196;-86
2021/05/31 10:18:30;;;;;;;4.65;4.25;;;28.30;14.30;;;;;;4985706;28;20632;-87
2021/05/31 10:20:58;;;;;;;4.78;3.97;;;27.80;15.50;;;;;;4983765;28;20258;-87
2021/05/31 10:23:25;;;;;;;3.97;3.67;;;27.80;14.70;;;;;;4984766;28;20571;-87
2021/05/31 10:25:58;;;;;;;4.72;4.00;;;27.80;15.60;;;;;;4992106;28;20204;-87
2021/05/31 10:28:28;;;;;;;3.70;3.50;;;28.30;13.50;;;;;;5018191;28;20541;-86
2021/05/31 10:31:00;;;;;;;4.70;3.90;;;27.30;15.30;;;;;;4999383;28;20623;-90
2021/05/31 10:33:28;;;;;;;4.03;3.72;;;27.70;15.50;;;;;;4988075;28;20329;-87
2021/05/31 10:35:59;;;;;;;4.97;4.00;;;27.40;15.40;;;;;;4992959;28;20208;-89
2021/05/31 10:38:30;;;;;;;5.85;4.35;;;27.90;15.60;;;;;;4991381;28;20227;-86
2021/05/31 10:40:57;;;;;;;5.40;3.88;;;27.70;15.40;;;;;;4983500;28;20286;-85
2021/05/31 10:43:25;;;;;;;5.45;3.90;;;27.50;15.40;;;;;;4980382;28;20239;-85
2021/05/31 10:46:04;;;;;;;5.03;4.10;;;27.20;15.20;;;;;;5007950;28;20204;-85
2021/05/31 10:48:31;;;;;;;4.60;4.20;;;26.60;15.00;;;;;;4984851;28;20255;-86
2021/05/31 10:51:00;;;;;;;8.32;4.55;;;26.00;17.40;;;;;;4970913;28;20196;-86
2021/05/31 10:53:31;;;;;;;4.78;4.10;;;25.70;17.80;;;;;;4976234;28;20227;-86
2021/05/31 10:55:59;;;;;;;4.40;4.10;;;25.00;18.30;;;;;;4971154;28;20195;-85
2021/05/31 10:58:34;;;;;;;4.10;3.47;;;24.80;17.50;;;;;;4984725;28;20283;-87
2021/05/31 11:01:04;;;;;;;6.60;4.18;;;25.30;16.70;;;;;;4979202;28;20242;-87
2021/05/31 11:03:44;;;;;;;5.72;3.78;;;25.30;17.20;;;;;;4991552;28;20228;-85
2021/05/31 11:06:11;;;;;;;5.65;3.30;;;24.40;19.50;;;;;;4980846;28;20199;-85
2021/05/31 11:08:48;;;;;;;6.85;3.25;;;23.90;20.60;;;;;;5017399;28;20235;-84
2021/05/31 11:11:28;;;;;;;6.25;3.78;;;22.80;22.60;;;;;;4989676;28;20196;-84
2021/05/31 11:13:54;;;;;;;3.97;3.58;;;22.10;22.00;;;;;;4993874;28;20235;-87
2021/05/31 11:16:22;;;;;;;4.15;3.10;;;21.20;26.40;;;;;;4997736;28;20256;-86
2021/05/31 11:18:56;;;;;;;5.07;3.50;;;21.10;25.60;;;;;;5023337;28;20231;-88
2021/05/31 11:21:32;;;;;;;5.00;3.30;;;21.10;24.00;;;;;;4988057;28;20293;-86
2021/05/31 11:24:01;;;;;;;3.40;3.10;;;20.80;24.60;;;;;;4998252;28;20223;-88
2021/05/31 11:26:33;;;;;;;4.05;3.50;;;20.90;24.40;;;;;;4994983;28;20239;-88
2021/05/31 11:29:01;;;;;;;3.45;3.10;;;20.40;27.30;;;;;;4988103;28;20339;-88
2021/05/31 11:31:27;;;;;;;3.78;3.47;;;20.20;28.00;;;;;;4997111;28;20196;-90
2021/05/31 11:33:57;;;;;;;5.32;3.63;;;20.10;25.60;;;;;;4992954;28;20243;-88
2021/05/31 11:36:31;;;;;;;3.47;3.17;;;20.00;27.40;;;;;;4986251;28;20207;-89
2021/05/31 11:38:57;;;;;;;3.55;3.20;;;19.80;28.10;;;;;;4983978;28;20655;-89
2021/05/31 11:41:38;;;;;;;3.40;3.10;;;19.80;27.30;;;;;;4994012;28;20228;-88
2021/05/31 11:44:06;;;;;;;4.72;3.08;;;19.80;27.30;;;;;;4996718;28;20285;-90
2021/05/31 11:46:43;;;;;;;3.92;3.10;;;19.70;27.60;;;;;;4990289;28;20228;-90
2021/05/31 11:49:11;;;;;;;6.35;3.22;;;19.70;27.20;;;;;;4984885;28;20673;-88
2021/05/31 11:51:38;;;;;;;3.40;3.05;;;19.70;27.20;;;;;;4992110;28;20211;-89
2021/05/31 11:54:05;;;;;;;3.85;2.90;;;19.70;26.60;;;;;;4997548;28;20232;-88
2021/05/31 11:56:33;;;;;;;3.53;3.03;;;19.90;26.60;;;;;;4991684;28;20227;-88
2021/05/31 11:58:59;;;;;;;5.38;3.20;;;19.90;26.20;;;;;;4989253;28;20257;-89
2021/05/31 12:01:28;;;;;;;4.63;3.67;;;19.70;27.00;;;;;;4989540;28;20216;-88
2021/05/31 12:03:55;;;;;;;7.55;4.63;;;19.70;28.90;;;;;;4984425;28;20232;-88
2021/05/31 12:06:23;;;;;;;4.05;3.33;;;19.60;27.20;;;;;;5024485;28;20264;-88
2021/05/31 12:08:52;;;;;;;3.25;2.95;;;19.80;30.60;;;;;;5052093;28;20228;-88
2021/05/31 12:11:20;;;;;;;3.35;2.90;;;19.90;27.70;;;;;;5026641;28;20200;-88
2021/05/31 12:13:48;;;;;;;3.40;3.10;;;20.10;25.90;;;;;;4988746;28;20229;-88
2021/05/31 12:16:15;;;;;;;3.28;2.97;;;20.20;25.10;;;;;;5012984;28;20571;-87
2021/05/31 12:18:43;;;;;;;6.28;3.38;;;19.90;27.10;;;;;;4982257;28;20233;-88
2021/05/31 12:21:10;;;;;;;4.00;3.60;;;19.90;27.90;;;;;;4985037;28;20223;-87
2021/05/31 12:23:37;;;;;;;7.18;3.80;;;19.80;26.30;;;;;;4994313;28;20239;-90
2021/05/31 12:26:08;;;;;;;3.30;3.00;;;19.70;27.60;;;;;;4994664;28;20287;-88
2021/05/31 12:28:36;;;;;;;6.70;3.53;;;19.70;28.30;;;;;;5020237;28;20236;-89
2021/05/31 12:31:03;;;;;;;6.22;3.40;;;19.60;28.80;;;;;;4971894;28;20263;-88
2021/05/31 12:33:30;;;;;;;3.45;3.15;;;19.70;25.20;;;;;;4988643;28;20248;-87
2021/05/31 12:35:57;;;;;;;3.60;3.00;;;19.50;25.90;;;;;;4992980;28;20214;-88
2021/05/31 12:38:25;;;;;;;4.63;3.40;;;19.50;27.30;;;;;;4997048;28;20238;-88
2021/05/31 12:40:54;;;;;;;5.60;3.65;;;19.60;26.60;;;;;;5020893;28;20209;-87
2021/05/31 12:43:30;;;;;;;4.15;3.25;;;19.60;26.60;;;;;;4994863;28;20235;-88
2021/05/31 12:45:57;;;;;;;4.13;3.47;;;19.70;25.50;;;;;;5032388;28;20280;-87
2021/05/31 12:48:23;;;;;;;5.70;3.30;;;19.70;26.20;;;;;;5035422;28;20234;-89
2021/05/31 12:50:51;;;;;;;4.13;3.72;;;19.50;27.60;;;;;;4993836;28;20276;-88
2021/05/31 12:53:18;;;;;;;5.20;4.10;;;19.50;26.10;;;;;;4989095;28;20236;-87
2021/05/31 12:55:47;;;;;;;5.00;3.97;;;19.30;30.30;;;;;;4992069;28;20200;-89
2021/05/31 12:58:16;;;;;;;5.35;3.55;;;19.50;26.90;;;;;;4990454;28;20261;-88
2021/05/31 13:00:45;;;;;;;4.70;3.50;;;19.20;27.30;;;;;;4997383;28;20204;-87
2021/05/31 13:03:12;;;;;;;5.05;3.15;;;19.00;27.70;;;;;;4992603;28;20246;-88
2021/05/31 13:05:40;;;;;;;4.28;3.47;;;19.10;27.70;;;;;;4986895;28;20197;-87
2021/05/31 13:08:09;;;;;;;4.85;3.65;;;19.20;29.80;;;;;;5039045;28;20307;-88
2021/05/31 13:10:38;;;;;;;6.32;3.42;;;19.00;31.20;;;;;;4978761;28;20342;-87
2021/05/31 13:13:06;;;;;;;5.03;3.63;;;19.10;27.00;;;;;;4975963;28;20200;-86
2021/05/31 13:15:42;;;;;;;3.85;3.10;;;19.20;26.90;;;;;;4985710;28;20204;-87
2021/05/31 13:18:11;;;;;;;4.53;3.63;;;19.10;27.70;;;;;;5027010;28;20192;-87
2021/05/31 13:20:39;;;;;;;6.65;3.08;;;19.10;27.10;;;;;;4992090;28;20292;-87
2021/05/31 13:23:09;;;;;;;4.53;3.05;;;19.10;27.50;;;;;;4997561;28;20200;-88
2021/05/31 13:25:36;;;;;;;3.50;3.00;;;19.20;26.30;;;;;;5001348;28;20276;-88
2021/05/31 13:28:11;;;;;;;3.20;2.90;;;18.50;25.70;;;;;;4985703;28;20220;-87
2021/05/31 13:30:43;;;;;;;4.00;3.55;;;18.70;26.60;;;;;;4985981;28;20220;-89
2021/05/31 13:33:12;;;;;;;4.00;3.47;;;19.10;25.60;;;;;;4988435;28;20208;-87
2021/05/31 13:35:42;;;;;;;8.20;3.38;;;19.00;27.20;;;;;;4997233;28;20200;-87
2021/05/31 13:38:10;;;;;;;4.82;3.10;;;19.10;28.30;;;;;;4988761;28;20226;-88
2021/05/31 13:40:38;;;;;;;4.15;2.90;;;19.00;26.80;;;;;;5056992;28;20201;-88
2021/05/31 13:43:07;;;;;;;4.85;3.70;;;19.10;25.40;;;;;;5010195;28;20207;-89
2021/05/31 13:45:36;;;;;;;5.05;2.80;;;19.00;26.70;;;;;;5023220;28;20670;-88
2021/05/31 13:48:06;;;;;;;4.05;3.55;;;19.00;27.10;;;;;;4987311;28;20259;-87
2021/05/31 13:50:33;;;;;;;4.45;3.25;;;19.10;26.40;;;;;;4998256;28;20670;-88
2021/05/31 13:53:11;;;;;;;4.70;3.40;;;19.10;26.30;;;;;;4989067;28;20264;-88
2021/05/31 13:55:37;;;;;;;4.47;3.42;;;18.80;28.40;;;;;;4988776;28;20204;-90
2021/05/31 13:58:05;;;;;;;3.80;3.30;;;18.70;28.20;;;;;;4993985;28;20264;-87
2021/05/31 14:00:33;;;;;;;4.18;2.85;;;18.80;26.70;;;;;;4991957;28;20216;-87
2021/05/31 14:03:00;;;;;;;3.80;3.20;;;19.00;27.20;;;;;;5018904;28;20205;-87
2021/05/31 14:05:31;;;;;;;5.15;3.00;;;19.10;25.10;;;;;;5016036;28;20223;-87
2021/05/31 14:08:00;;;;;;;3.63;3.22;;;19.10;25.70;;;;;;4985065;28;20250;-87
2021/05/31 14:10:27;;;;;;;3.20;2.90;;;18.90;24.50;;;;;;5062822;28;20254;-88
2021/05/31 14:12:55;;;;;;;3.70;3.22;;;18.90;25.80;;;;;;5032311;28;20241;-87
2021/05/31 14:15:23;;;;;;;3.45;3.08;;;18.70;26.90;;;;;;4982804;28;20232;-88
2021/05/31 14:17:51;;;;;;;4.18;2.67;;;18.70;27.70;;;;;;5032939;28;20242;-88
2021/05/31 14:20:22;;;;;;;4.75;3.10;;;18.80;27.50;;;;;;5070247;28;20218;-88
2021/05/31 14:22:53;;;;;;;5.28;2.88;;;18.80;27.00;;;;;;5005325;28;20204;-87
2021/05/31 14:25:20;;;;;;;4.25;3.08;;;18.90;25.90;;;;;;4998315;28;20535;-87
2021/05/31 14:27:47;;;;;;;3.40;3.10;;;18.90;25.40;;;;;;5041583;28;20314;-91
2021/05/31 14:30:15;;;;;;;4.63;2.60;;;18.90;26.30;;;;;;4991982;28;20240;-88
2021/05/31 14:32:42;;;;;;;3.60;2.58;;;19.00;26.60;;;;;;4984641;28;20271;-88
2021/05/31 14:35:10;;;;;;;3.75;2.40;;;19.10;26.80;;;;;;4986337;28;20230;-87
2021/05/31 14:37:37;;;;;;;3.28;2.70;;;19.30;27.80;;;;;;4998154;28;20251;-88
2021/05/31 14:40:06;;;;;;;6.32;3.00;;;19.40;24.70;;;;;;4985590;28;20220;-87
2021/05/31 14:42:33;;;;;;;3.03;2.72;;;19.20;24.00;;;;;;5044686;28;20204;-88
2021/05/31 14:44:59;;;;;;;2.75;2.55;;;19.10;25.90;;;;;;4979601;28;20236;-88
2021/05/31 14:47:28;;;;;;;5.32;2.80;;;19.20;24.90;;;;;;4988989;28;20249;-87